Terminal Aerodrome Forecast
Issued by NWS

Home | Current Version | Previous Version | Text Only | Print | Product List | Glossary On
Versions: 1 2 3 4 5 6 7 8 9 10 11 12 13 14 15 16 17
000
FTUS44 KTSA 010500 RRA
TAFBVO
TAF
KBVO 010544Z 0106/0206 17006KT 5SM -RA BR OVC008
      TEMPO 0106/0108 2SM -RA BR OVC005
     FM011200 24006G14KT P6SM OVC015
     FM011500 31013G21KT P6SM OVC025
     FM011800 32014G22KT P6SM OVC035
     FM020000 33013G21KT P6SM SCT040=

USA.gov is the U.S. government's official web portal to all federal, state and local government web resources and services.